sensor_id;sensor_type;location;lat;lon;timestamp;P1;durP1;ratioP1;P2;durP2;ratioP2
41943;SDS011;27636;52.610;13.244;2023-05-10T00:00:57;11.45;;;4.05;;
41943;SDS011;27636;52.610;13.244;2023-05-10T00:06:01;8.68;;;4.28;;
41943;SDS011;27636;52.610;13.244;2023-05-10T00:11:05;8.52;;;4.13;;
41943;SDS011;27636;52.610;13.244;2023-05-10T00:16:09;9.63;;;4.05;;
41943;SDS011;27636;52.610;13.244;2023-05-10T00:26:19;8.23;;;4.07;;
41943;SDS011;27636;52.610;13.244;2023-05-10T00:31:26;10.07;;;4.15;;
41943;SDS011;27636;52.610;13.244;2023-05-10T00:36:30;11.85;;;4.30;;
41943;SDS011;27636;52.610;13.244;2023-05-10T00:41:35;8.13;;;3.97;;
41943;SDS011;27636;52.610;13.244;2023-05-10T00:46:41;7.60;;;3.60;;
41943;SDS011;27636;52.610;13.244;2023-05-10T00:51:44;8.82;;;3.63;;
41943;SDS011;27636;52.610;13.244;2023-05-10T00:56:49;7.90;;;3.72;;
41943;SDS011;27636;52.610;13.244;2023-05-10T01:01:53;8.10;;;4.35;;
41943;SDS011;27636;52.610;13.244;2023-05-10T01:06:58;9.30;;;4.22;;
41943;SDS011;27636;52.610;13.244;2023-05-10T01:12:03;8.50;;;4.18;;
41943;SDS011;27636;52.610;13.244;2023-05-10T01:17:09;11.73;;;4.60;;
41943;SDS011;27636;52.610;13.244;2023-05-10T01:22:21;10.63;;;4.40;;
41943;SDS011;27636;52.610;13.244;2023-05-10T01:33:37;13.02;;;4.50;;
41943;SDS011;27636;52.610;13.244;2023-05-10T01:38:47;11.35;;;4.75;;
41943;SDS011;27636;52.610;13.244;2023-05-10T01:43:56;9.23;;;4.57;;
41943;SDS011;27636;52.610;13.244;2023-05-10T01:49:06;10.23;;;4.40;;
41943;SDS011;27636;52.610;13.244;2023-05-10T01:54:14;9.65;;;3.92;;
41943;SDS011;27636;52.610;13.244;2023-05-10T01:59:21;10.07;;;4.18;;
41943;SDS011;27636;52.610;13.244;2023-05-10T02:04:30;8.77;;;3.90;;
41943;SDS011;27636;52.610;13.244;2023-05-10T02:09:34;9.50;;;3.80;;
41943;SDS011;27636;52.610;13.244;2023-05-10T02:14:39;9.73;;;3.97;;
41943;SDS011;27636;52.610;13.244;2023-05-10T02:24:49;6.20;;;3.35;;
41943;SDS011;27636;52.610;13.244;2023-05-10T02:29:53;11.80;;;4.05;;
41943;SDS011;27636;52.610;13.244;2023-05-10T02:34:59;8.95;;;4.32;;
41943;SDS011;27636;52.610;13.244;2023-05-10T02:40:05;8.32;;;3.78;;
41943;SDS011;27636;52.610;13.244;2023-05-10T02:45:11;9.23;;;3.88;;
41943;SDS011;27636;52.610;13.244;2023-05-10T02:50:25;9.40;;;3.90;;
41943;SDS011;27636;52.610;13.244;2023-05-10T02:55:31;9.45;;;4.05;;
41943;SDS011;27636;52.610;13.244;2023-05-10T03:00:38;9.60;;;3.85;;
41943;SDS011;27636;52.610;13.244;2023-05-10T03:05:44;12.27;;;4.07;;
41943;SDS011;27636;52.610;13.244;2023-05-10T03:10:51;10.77;;;4.40;;
41943;SDS011;27636;52.610;13.244;2023-05-10T03:16:05;11.13;;;4.20;;
41943;SDS011;27636;52.610;13.244;2023-05-10T03:21:12;8.98;;;3.95;;
41943;SDS011;27636;52.610;13.244;2023-05-10T03:26:20;11.40;;;4.38;;
41943;SDS011;27636;52.610;13.244;2023-05-10T03:31:36;9.75;;;3.65;;
41943;SDS011;27636;52.610;13.244;2023-05-10T03:36:42;11.18;;;4.10;;
41943;SDS011;27636;52.610;13.244;2023-05-10T03:41:45;9.98;;;3.38;;
41943;SDS011;27636;52.610;13.244;2023-05-10T03:46:49;15.25;;;4.60;;
41943;SDS011;27636;52.610;13.244;2023-05-10T03:51:54;10.05;;;4.28;;
41943;SDS011;27636;52.610;13.244;2023-05-10T03:56:57;10.02;;;4.20;;
41943;SDS011;27636;52.610;13.244;2023-05-10T04:02:01;7.03;;;3.30;;
41943;SDS011;27636;52.610;13.244;2023-05-10T04:07:07;7.82;;;4.22;;
41943;SDS011;27636;52.610;13.244;2023-05-10T04:12:12;7.63;;;2.95;;
41943;SDS011;27636;52.610;13.244;2023-05-10T04:17:15;9.13;;;4.07;;
41943;SDS011;27636;52.610;13.244;2023-05-10T04:22:20;7.60;;;3.50;;
41943;SDS011;27636;52.610;13.244;2023-05-10T04:27:23;10.90;;;4.00;;
41943;SDS011;27636;52.610;13.244;2023-05-10T04:32:27;8.93;;;3.75;;
41943;SDS011;27636;52.610;13.244;2023-05-10T04:37:32;7.90;;;3.15;;
41943;SDS011;27636;52.610;13.244;2023-05-10T04:42:35;8.65;;;4.13;;
41943;SDS011;27636;52.610;13.244;2023-05-10T04:47:39;8.52;;;3.47;;
41943;SDS011;27636;52.610;13.244;2023-05-10T04:52:43;6.93;;;3.28;;
41943;SDS011;27636;52.610;13.244;2023-05-10T04:57:47;7.25;;;3.33;;
41943;SDS011;27636;52.610;13.244;2023-05-10T05:02:51;9.32;;;3.28;;
41943;SDS011;27636;52.610;13.244;2023-05-10T05:07:56;11.02;;;3.50;;
41943;SDS011;27636;52.610;13.244;2023-05-10T05:12:59;11.20;;;4.13;;
41943;SDS011;27636;52.610;13.244;2023-05-10T05:18:03;8.32;;;3.00;;
41943;SDS011;27636;52.610;13.244;2023-05-10T05:23:08;9.32;;;3.60;;
41943;SDS011;27636;52.610;13.244;2023-05-10T05:28:12;9.77;;;3.10;;
41943;SDS011;27636;52.610;13.244;2023-05-10T05:33:15;9.05;;;2.95;;
41943;SDS011;27636;52.610;13.244;2023-05-10T05:38:20;7.85;;;3.03;;
41943;SDS011;27636;52.610;13.244;2023-05-10T05:43:23;9.60;;;2.95;;
41943;SDS011;27636;52.610;13.244;2023-05-10T05:48:29;12.17;;;3.10;;
41943;SDS011;27636;52.610;13.244;2023-05-10T05:53:34;6.45;;;2.58;;
41943;SDS011;27636;52.610;13.244;2023-05-10T05:58:37;9.27;;;2.83;;
41943;SDS011;27636;52.610;13.244;2023-05-10T06:03:40;6.60;;;3.13;;
41943;SDS011;27636;52.610;13.244;2023-05-10T06:08:45;6.30;;;2.92;;
41943;SDS011;27636;52.610;13.244;2023-05-10T06:13:49;10.45;;;3.00;;
41943;SDS011;27636;52.610;13.244;2023-05-10T06:18:52;8.05;;;2.50;;
41943;SDS011;27636;52.610;13.244;2023-05-10T06:23:57;6.38;;;3.28;;
41943;SDS011;27636;52.610;13.244;2023-05-10T06:29:00;5.95;;;2.60;;
41943;SDS011;27636;52.610;13.244;2023-05-10T06:34:05;7.40;;;2.50;;
41943;SDS011;27636;52.610;13.244;2023-05-10T06:39:12;5.65;;;2.35;;
41943;SDS011;27636;52.610;13.244;2023-05-10T06:44:15;6.90;;;2.60;;
41943;SDS011;27636;52.610;13.244;2023-05-10T06:49:19;5.00;;;2.30;;
41943;SDS011;27636;52.610;13.244;2023-05-10T06:54:23;7.63;;;2.55;;
41943;SDS011;27636;52.610;13.244;2023-05-10T07:04:31;8.63;;;2.35;;
41943;SDS011;27636;52.610;13.244;2023-05-10T07:09:35;4.28;;;1.92;;
41943;SDS011;27636;52.610;13.244;2023-05-10T07:14:39;7.68;;;2.45;;
41943;SDS011;27636;52.610;13.244;2023-05-10T07:19:42;5.45;;;2.67;;
41943;SDS011;27636;52.610;13.244;2023-05-10T07:24:47;6.10;;;1.95;;
41943;SDS011;27636;52.610;13.244;2023-05-10T07:29:51;11.98;;;3.38;;
41943;SDS011;27636;52.610;13.244;2023-05-10T07:34:55;5.32;;;2.20;;
41943;SDS011;27636;52.610;13.244;2023-05-10T07:40:00;5.78;;;1.92;;
41943;SDS011;27636;52.610;13.244;2023-05-10T07:45:04;4.47;;;1.92;;
41943;SDS011;27636;52.610;13.244;2023-05-10T07:50:08;7.90;;;1.98;;
41943;SDS011;27636;52.610;13.244;2023-05-10T07:55:13;6.50;;;2.05;;
41943;SDS011;27636;52.610;13.244;2023-05-10T08:00:18;6.22;;;2.22;;
41943;SDS011;27636;52.610;13.244;2023-05-10T08:05:23;5.45;;;2.50;;
41943;SDS011;27636;52.610;13.244;2023-05-10T08:10:27;6.97;;;2.15;;
41943;SDS011;27636;52.610;13.244;2023-05-10T08:15:31;6.18;;;2.60;;
41943;SDS011;27636;52.610;13.244;2023-05-10T08:20:34;6.38;;;2.25;;
41943;SDS011;27636;52.610;13.244;2023-05-10T08:25:40;7.47;;;2.05;;
41943;SDS011;27636;52.610;13.244;2023-05-10T08:30:43;5.32;;;2.05;;
41943;SDS011;27636;52.610;13.244;2023-05-10T08:35:47;5.20;;;1.90;;
41943;SDS011;27636;52.610;13.244;2023-05-10T08:40:53;5.68;;;2.10;;
41943;SDS011;27636;52.610;13.244;2023-05-10T08:46:02;6.50;;;2.40;;
41943;SDS011;27636;52.610;13.244;2023-05-10T08:51:08;4.35;;;2.13;;
41943;SDS011;27636;52.610;13.244;2023-05-10T08:56:16;8.50;;;2.47;;
41943;SDS011;27636;52.610;13.244;2023-05-10T09:01:21;6.70;;;2.53;;
41943;SDS011;27636;52.610;13.244;2023-05-10T09:06:25;5.38;;;2.65;;
41943;SDS011;27636;52.610;13.244;2023-05-10T09:11:30;7.47;;;2.20;;
41943;SDS011;27636;52.610;13.244;2023-05-10T09:16:34;4.40;;;2.03;;
41943;SDS011;27636;52.610;13.244;2023-05-10T09:21:38;9.25;;;2.25;;
41943;SDS011;27636;52.610;13.244;2023-05-10T09:26:46;6.73;;;2.93;;
41943;SDS011;27636;52.610;13.244;2023-05-10T09:31:53;4.78;;;2.00;;
41943;SDS011;27636;52.610;13.244;2023-05-10T09:36:58;7.22;;;2.17;;
41943;SDS011;27636;52.610;13.244;2023-05-10T09:42:08;6.63;;;2.13;;
41943;SDS011;27636;52.610;13.244;2023-05-10T09:47:16;5.18;;;2.42;;
41943;SDS011;27636;52.610;13.244;2023-05-10T09:52:21;6.18;;;2.22;;
41943;SDS011;27636;52.610;13.244;2023-05-10T09:57:26;6.63;;;1.85;;
41943;SDS011;27636;52.610;13.244;2023-05-10T10:02:30;6.40;;;2.10;;
41943;SDS011;27636;52.610;13.244;2023-05-10T10:07:34;4.95;;;1.80;;
41943;SDS011;27636;52.610;13.244;2023-05-10T10:17:44;4.53;;;2.15;;
41943;SDS011;27636;52.610;13.244;2023-05-10T10:22:49;7.22;;;2.40;;
41943;SDS011;27636;52.610;13.244;2023-05-10T10:28:19;6.13;;;2.17;;
41943;SDS011;27636;52.610;13.244;2023-05-10T10:33:33;6.38;;;2.58;;
41943;SDS011;27636;52.610;13.244;2023-05-10T10:38:55;5.65;;;2.17;;
41943;SDS011;27636;52.610;13.244;2023-05-10T10:49:42;5.57;;;2.30;;
41943;SDS011;27636;52.610;13.244;2023-05-10T10:54:51;4.53;;;1.95;;
41943;SDS011;27636;52.610;13.244;2023-05-10T11:05:39;4.40;;;1.80;;
41943;SDS011;27636;52.610;13.244;2023-05-10T11:10:52;4.50;;;2.40;;
41943;SDS011;27636;52.610;13.244;2023-05-10T11:16:16;5.50;;;2.20;;
41943;SDS011;27636;52.610;13.244;2023-05-10T11:21:21;5.38;;;2.30;;
41943;SDS011;27636;52.610;13.244;2023-05-10T11:26:25;4.23;;;2.07;;
41943;SDS011;27636;52.610;13.244;2023-05-10T11:31:34;4.85;;;1.88;;
41943;SDS011;27636;52.610;13.244;2023-05-10T11:36:44;5.47;;;2.20;;
41943;SDS011;27636;52.610;13.244;2023-05-10T11:41:54;6.32;;;2.17;;
41943;SDS011;27636;52.610;13.244;2023-05-10T11:47:00;2.65;;;1.70;;
41943;SDS011;27636;52.610;13.244;2023-05-10T11:52:04;5.10;;;2.65;;
41943;SDS011;27636;52.610;13.244;2023-05-10T11:57:08;4.28;;;1.95;;
41943;SDS011;27636;52.610;13.244;2023-05-10T12:02:13;7.20;;;2.23;;
41943;SDS011;27636;52.610;13.244;2023-05-10T12:07:17;9.48;;;1.98;;
41943;SDS011;27636;52.610;13.244;2023-05-10T12:12:21;5.50;;;1.98;;
41943;SDS011;27636;52.610;13.244;2023-05-10T12:17:28;5.80;;;2.07;;
41943;SDS011;27636;52.610;13.244;2023-05-10T12:22:33;7.50;;;2.00;;
41943;SDS011;27636;52.610;13.244;2023-05-10T12:27:37;7.95;;;2.00;;
41943;SDS011;27636;52.610;13.244;2023-05-10T12:32:43;4.90;;;2.03;;
41943;SDS011;27636;52.610;13.244;2023-05-10T12:37:47;5.57;;;2.65;;
41943;SDS011;27636;52.610;13.244;2023-05-10T12:42:51;6.15;;;2.20;;
41943;SDS011;27636;52.610;13.244;2023-05-10T12:47:56;6.35;;;2.72;;
41943;SDS011;27636;52.610;13.244;2023-05-10T12:53:00;4.68;;;2.10;;
41943;SDS011;27636;52.610;13.244;2023-05-10T12:58:04;5.60;;;1.83;;
41943;SDS011;27636;52.610;13.244;2023-05-10T13:03:09;5.63;;;2.28;;
41943;SDS011;27636;52.610;13.244;2023-05-10T13:08:13;6.75;;;1.65;;
41943;SDS011;27636;52.610;13.244;2023-05-10T13:13:16;5.13;;;2.27;;
41943;SDS011;27636;52.610;13.244;2023-05-10T13:18:22;5.85;;;2.17;;
41943;SDS011;27636;52.610;13.244;2023-05-10T13:23:26;5.35;;;2.33;;
41943;SDS011;27636;52.610;13.244;2023-05-10T13:28:30;4.00;;;1.90;;
41943;SDS011;27636;52.610;13.244;2023-05-10T13:33:35;8.23;;;2.55;;
41943;SDS011;27636;52.610;13.244;2023-05-10T13:38:39;5.50;;;1.75;;
41943;SDS011;27636;52.610;13.244;2023-05-10T13:43:42;3.93;;;2.03;;
41943;SDS011;27636;52.610;13.244;2023-05-10T13:48:47;3.97;;;1.70;;
41943;SDS011;27636;52.610;13.244;2023-05-10T13:53:50;4.93;;;2.20;;
41943;SDS011;27636;52.610;13.244;2023-05-10T14:04:00;6.07;;;2.03;;
41943;SDS011;27636;52.610;13.244;2023-05-10T14:09:04;4.95;;;2.05;;
41943;SDS011;27636;52.610;13.244;2023-05-10T14:14:08;4.15;;;1.80;;
41943;SDS011;27636;52.610;13.244;2023-05-10T14:19:13;5.22;;;2.10;;
41943;SDS011;27636;52.610;13.244;2023-05-10T14:24:16;6.25;;;2.22;;
41943;SDS011;27636;52.610;13.244;2023-05-10T14:29:20;4.33;;;2.10;;
41943;SDS011;27636;52.610;13.244;2023-05-10T14:34:24;5.15;;;1.90;;
41943;SDS011;27636;52.610;13.244;2023-05-10T14:39:28;6.75;;;2.00;;
41943;SDS011;27636;52.610;13.244;2023-05-10T14:44:32;6.03;;;2.60;;
41943;SDS011;27636;52.610;13.244;2023-05-10T14:49:37;7.93;;;2.00;;
41943;SDS011;27636;52.610;13.244;2023-05-10T14:59:44;6.50;;;2.38;;
41943;SDS011;27636;52.610;13.244;2023-05-10T15:04:49;7.87;;;2.57;;
41943;SDS011;27636;52.610;13.244;2023-05-10T15:09:54;5.55;;;1.95;;
41943;SDS011;27636;52.610;13.244;2023-05-10T15:14:57;7.95;;;2.13;;
41943;SDS011;27636;52.610;13.244;2023-05-10T15:20:02;3.72;;;2.08;;
41943;SDS011;27636;52.610;13.244;2023-05-10T15:25:07;6.35;;;1.85;;
41943;SDS011;27636;52.610;13.244;2023-05-10T15:30:10;16.30;;;2.40;;
41943;SDS011;27636;52.610;13.244;2023-05-10T15:35:16;8.23;;;2.85;;
41943;SDS011;27636;52.610;13.244;2023-05-10T15:40:20;4.68;;;2.03;;
41943;SDS011;27636;52.610;13.244;2023-05-10T15:45:24;5.53;;;2.05;;
41943;SDS011;27636;52.610;13.244;2023-05-10T15:50:28;4.07;;;1.77;;
41943;SDS011;27636;52.610;13.244;2023-05-10T15:55:31;9.68;;;2.42;;
41943;SDS011;27636;52.610;13.244;2023-05-10T16:00:37;7.88;;;2.15;;
41943;SDS011;27636;52.610;13.244;2023-05-10T16:05:42;8.60;;;2.00;;
41943;SDS011;27636;52.610;13.244;2023-05-10T16:10:45;8.30;;;1.88;;
41943;SDS011;27636;52.610;13.244;2023-05-10T16:15:48;8.10;;;3.28;;
41943;SDS011;27636;52.610;13.244;2023-05-10T16:20:53;8.90;;;3.53;;
41943;SDS011;27636;52.610;13.244;2023-05-10T16:31:00;10.53;;;3.60;;
41943;SDS011;27636;52.610;13.244;2023-05-10T16:36:05;6.15;;;3.30;;
41943;SDS011;27636;52.610;13.244;2023-05-10T16:41:09;7.70;;;3.40;;
41943;SDS011;27636;52.610;13.244;2023-05-10T16:46:12;7.32;;;3.60;;
41943;SDS011;27636;52.610;13.244;2023-05-10T16:51:18;7.40;;;3.63;;
41943;SDS011;27636;52.610;13.244;2023-05-10T17:01:26;7.45;;;3.80;;
41943;SDS011;27636;52.610;13.244;2023-05-10T17:06:31;6.43;;;3.60;;
41943;SDS011;27636;52.610;13.244;2023-05-10T17:11:34;9.65;;;4.35;;
41943;SDS011;27636;52.610;13.244;2023-05-10T17:16:38;6.85;;;3.88;;
41943;SDS011;27636;52.610;13.244;2023-05-10T17:21:43;8.48;;;3.33;;
41943;SDS011;27636;52.610;13.244;2023-05-10T17:26:47;7.72;;;3.65;;
41943;SDS011;27636;52.610;13.244;2023-05-10T17:31:50;8.00;;;3.70;;
41943;SDS011;27636;52.610;13.244;2023-05-10T17:36:56;8.68;;;4.35;;
41943;SDS011;27636;52.610;13.244;2023-05-10T17:41:59;7.97;;;3.70;;
41943;SDS011;27636;52.610;13.244;2023-05-10T17:47:03;7.43;;;3.75;;
41943;SDS011;27636;52.610;13.244;2023-05-10T17:52:07;8.13;;;3.47;;
41943;SDS011;27636;52.610;13.244;2023-05-10T17:57:11;11.13;;;3.88;;
41943;SDS011;27636;52.610;13.244;2023-05-10T18:02:15;7.53;;;3.88;;
41943;SDS011;27636;52.610;13.244;2023-05-10T18:07:20;10.27;;;4.00;;
41943;SDS011;27636;52.610;13.244;2023-05-10T18:12:25;10.77;;;4.88;;
41943;SDS011;27636;52.610;13.244;2023-05-10T18:17:29;11.20;;;4.20;;
41943;SDS011;27636;52.610;13.244;2023-05-10T18:22:34;7.38;;;3.67;;
41943;SDS011;27636;52.610;13.244;2023-05-10T18:27:38;8.18;;;3.70;;
41943;SDS011;27636;52.610;13.244;2023-05-10T18:32:41;8.80;;;4.40;;
41943;SDS011;27636;52.610;13.244;2023-05-10T18:37:46;11.50;;;4.68;;
41943;SDS011;27636;52.610;13.244;2023-05-10T18:42:50;8.88;;;4.13;;
41943;SDS011;27636;52.610;13.244;2023-05-10T18:47:54;8.68;;;4.22;;
41943;SDS011;27636;52.610;13.244;2023-05-10T18:52:58;8.95;;;4.10;;
41943;SDS011;27636;52.610;13.244;2023-05-10T18:58:02;9.98;;;4.40;;
41943;SDS011;27636;52.610;13.244;2023-05-10T19:03:05;11.32;;;4.50;;
41943;SDS011;27636;52.610;13.244;2023-05-10T19:08:10;8.27;;;4.15;;
41943;SDS011;27636;52.610;13.244;2023-05-10T19:18:17;8.20;;;3.90;;
41943;SDS011;27636;52.610;13.244;2023-05-10T19:23:23;9.27;;;5.00;;
41943;SDS011;27636;52.610;13.244;2023-05-10T19:28:28;9.65;;;4.50;;
41943;SDS011;27636;52.610;13.244;2023-05-10T19:33:31;10.10;;;4.80;;
41943;SDS011;27636;52.610;13.244;2023-05-10T19:38:36;9.38;;;4.68;;
41943;SDS011;27636;52.610;13.244;2023-05-10T19:43:40;9.77;;;5.07;;
41943;SDS011;27636;52.610;13.244;2023-05-10T19:48:44;16.05;;;5.13;;
41943;SDS011;27636;52.610;13.244;2023-05-10T19:53:51;9.93;;;5.05;;
41943;SDS011;27636;52.610;13.244;2023-05-10T19:58:54;14.15;;;5.47;;
41943;SDS011;27636;52.610;13.244;2023-05-10T20:03:58;11.55;;;5.68;;
41943;SDS011;27636;52.610;13.244;2023-05-10T20:09:03;13.73;;;5.55;;
41943;SDS011;27636;52.610;13.244;2023-05-10T20:19:10;11.95;;;5.45;;
41943;SDS011;27636;52.610;13.244;2023-05-10T20:24:16;12.48;;;5.10;;
41943;SDS011;27636;52.610;13.244;2023-05-10T20:34:23;13.15;;;5.90;;
41943;SDS011;27636;52.610;13.244;2023-05-10T20:39:27;15.23;;;6.50;;
41943;SDS011;27636;52.610;13.244;2023-05-10T20:44:31;11.80;;;6.25;;
41943;SDS011;27636;52.610;13.244;2023-05-10T20:49:35;13.90;;;6.45;;
41943;SDS011;27636;52.610;13.244;2023-05-10T20:54:41;15.83;;;6.57;;
41943;SDS011;27636;52.610;13.244;2023-05-10T20:59:44;11.68;;;6.32;;
41943;SDS011;27636;52.610;13.244;2023-05-10T21:04:47;15.88;;;6.50;;
41943;SDS011;27636;52.610;13.244;2023-05-10T21:09:52;12.70;;;6.65;;
41943;SDS011;27636;52.610;13.244;2023-05-10T21:14:55;14.52;;;7.03;;
41943;SDS011;27636;52.610;13.244;2023-05-10T21:19:59;14.10;;;6.63;;
41943;SDS011;27636;52.610;13.244;2023-05-10T21:25:05;12.70;;;6.80;;
41943;SDS011;27636;52.610;13.244;2023-05-10T21:30:09;14.98;;;6.70;;
41943;SDS011;27636;52.610;13.244;2023-05-10T21:35:13;14.97;;;6.97;;
41943;SDS011;27636;52.610;13.244;2023-05-10T21:40:18;16.25;;;6.95;;
41943;SDS011;27636;52.610;13.244;2023-05-10T21:50:26;13.05;;;6.50;;
41943;SDS011;27636;52.610;13.244;2023-05-10T21:55:31;12.45;;;6.97;;
41943;SDS011;27636;52.610;13.244;2023-05-10T22:00:36;15.38;;;6.13;;
41943;SDS011;27636;52.610;13.244;2023-05-10T22:05:40;16.33;;;7.60;;
41943;SDS011;27636;52.610;13.244;2023-05-10T22:10:45;14.20;;;6.55;;
41943;SDS011;27636;52.610;13.244;2023-05-10T22:15:48;13.38;;;7.35;;
41943;SDS011;27636;52.610;13.244;2023-05-10T22:20:53;13.23;;;6.30;;
41943;SDS011;27636;52.610;13.244;2023-05-10T22:26:00;15.80;;;7.07;;
41943;SDS011;27636;52.610;13.244;2023-05-10T22:31:07;13.38;;;6.72;;
41943;SDS011;27636;52.610;13.244;2023-05-10T22:36:11;13.30;;;6.57;;
41943;SDS011;27636;52.610;13.244;2023-05-10T22:41:18;16.80;;;7.15;;
41943;SDS011;27636;52.610;13.244;2023-05-10T22:46:21;13.63;;;6.70;;
41943;SDS011;27636;52.610;13.244;2023-05-10T22:51:25;12.30;;;6.47;;
41943;SDS011;27636;52.610;13.244;2023-05-10T22:56:30;14.20;;;6.90;;
41943;SDS011;27636;52.610;13.244;2023-05-10T23:01:34;13.02;;;6.68;;
41943;SDS011;27636;52.610;13.244;2023-05-10T23:06:37;11.95;;;6.53;;
41943;SDS011;27636;52.610;13.244;2023-05-10T23:11:42;15.45;;;7.28;;
41943;SDS011;27636;52.610;13.244;2023-05-10T23:16:46;12.85;;;6.80;;
41943;SDS011;27636;52.610;13.244;2023-05-10T23:21:49;14.40;;;6.35;;
41943;SDS011;27636;52.610;13.244;2023-05-10T23:26:54;14.15;;;7.30;;
41943;SDS011;27636;52.610;13.244;2023-05-10T23:37:01;15.10;;;6.55;;
41943;SDS011;27636;52.610;13.244;2023-05-10T23:42:07;15.07;;;6.85;;
41943;SDS011;27636;52.610;13.244;2023-05-10T23:47:10;13.57;;;7.00;;
41943;SDS011;27636;52.610;13.244;2023-05-10T23:52:14;12.52;;;6.18;;
41943;SDS011;27636;52.610;13.244;2023-05-10T23:57:20;14.50;;;6.30;;
